Time;durP1;ratioP1;P1;durP2;ratioP2;P2;SDS_P1;SDS_P2;PMS_P1;PMS_P2;Temp;Humidity;BMP_temperature;BMP_pressure;BME280_temperature;BME280_humidity;BME280_pressure;Samples;Min_cycle;Max_cycle;Signal;HPM_P1;HPM_P2
2023/12/26 00:02:20;;;;;;;4.10;1.85;;;;;;;;;;4958756;28;20530;-56
2023/12/26 00:04:47;;;;;;;7.18;2.85;;;;;;;;;;4957702;28;20435;-59
2023/12/26 00:07:13;;;;;;;5.88;2.20;;;;;;;;;;4952990;28;20055;-60
2023/12/26 00:09:42;;;;;;;6.82;1.95;;;;;;;;;;4962379;28;20046;-60
2023/12/26 00:12:08;;;;;;;3.78;2.10;;;;;;;;;;4952908;28;20039;-57
2023/12/26 00:14:35;;;;;;;2.38;1.70;;;;;;;;;;4983191;28;20047;-58
2023/12/26 00:17:01;;;;;;;3.35;1.90;;;;;;;;;;4958853;28;20145;-58
2023/12/26 00:19:27;;;;;;;5.95;2.35;;;;;;;;;;4955293;28;20523;-58
2023/12/26 00:21:53;;;;;;;3.03;2.00;;;;;;;;;;4951464;28;20035;-59
2023/12/26 00:24:19;;;;;;;4.45;2.28;;;;;;;;;;4951865;28;20035;-61
2023/12/26 00:26:45;;;;;;;6.13;1.92;;;;;;;;;;4951457;28;20491;-60
2023/12/26 00:29:11;;;;;;;4.50;1.85;;;;;;;;;;4952061;28;20035;-59
2023/12/26 00:31:41;;;;;;;2.30;1.70;;;;;;;;;;4970829;28;20046;-59
2023/12/26 00:34:08;;;;;;;6.80;1.90;;;;;;;;;;4969149;28;20051;-58
2023/12/26 00:36:34;;;;;;;3.40;2.22;;;;;;;;;;4951895;28;20537;-57
2023/12/26 00:39:00;;;;;;;5.00;1.80;;;;;;;;;;4959069;28;20035;-56
2023/12/26 00:41:26;;;;;;;3.95;2.20;;;;;;;;;;4957836;28;20035;-59
2023/12/26 00:43:55;;;;;;;4.55;2.42;;;;;;;;;;4953871;28;20066;-58
2023/12/26 00:46:21;;;;;;;4.60;2.40;;;;;;;;;;4968953;28;20508;-60
2023/12/26 00:48:48;;;;;;;3.03;1.52;;;;;;;;;;4951313;28;20046;-61
2023/12/26 00:51:14;;;;;;;4.78;1.63;;;;;;;;;;4964555;28;20418;-59
2023/12/26 00:53:40;;;;;;;3.65;1.88;;;;;;;;;;4956943;28;20035;-58
2023/12/26 00:56:07;;;;;;;3.10;1.77;;;;;;;;;;4965953;28;20062;-59
2023/12/26 00:58:33;;;;;;;3.03;1.83;;;;;;;;;;4952212;28;20054;-59
2023/12/26 01:01:00;;;;;;;4.65;2.00;;;;;;;;;;4955852;28;20449;-55
2023/12/26 01:03:26;;;;;;;4.57;1.90;;;;;;;;;;4967568;28;20036;-58
2023/12/26 01:05:53;;;;;;;4.28;1.60;;;;;;;;;;4955925;28;20050;-56
2023/12/26 01:08:19;;;;;;;6.68;1.80;;;;;;;;;;4974706;28;20055;-56
2023/12/26 01:10:45;;;;;;;2.95;1.90;;;;;;;;;;4950327;28;20054;-56
2023/12/26 01:13:11;;;;;;;4.65;1.30;;;;;;;;;;4950241;28;20059;-57
2023/12/26 01:15:38;;;;;;;3.25;1.48;;;;;;;;;;4949015;28;20054;-58
2023/12/26 01:18:05;;;;;;;4.68;2.10;;;;;;;;;;4949839;28;20506;-57
2023/12/26 01:20:32;;;;;;;5.35;1.70;;;;;;;;;;4947927;28;20580;-58
2023/12/26 01:22:58;;;;;;;2.70;1.70;;;;;;;;;;4955113;28;20445;-58
2023/12/26 01:25:24;;;;;;;3.70;1.50;;;;;;;;;;4965201;28;20055;-60
2023/12/26 01:27:50;;;;;;;6.25;1.75;;;;;;;;;;4967140;28;20058;-59
2023/12/26 01:30:19;;;;;;;3.28;1.50;;;;;;;;;;4951489;28;20490;-57
2023/12/26 01:32:45;;;;;;;2.92;2.00;;;;;;;;;;4966956;28;20047;-58
2023/12/26 01:35:12;;;;;;;5.30;1.90;;;;;;;;;;4950332;28;20063;-58
2023/12/26 01:37:38;;;;;;;4.25;1.60;;;;;;;;;;4953830;28;20047;-58
2023/12/26 01:40:05;;;;;;;3.25;1.50;;;;;;;;;;4957511;28;20414;-60
2023/12/26 01:42:31;;;;;;;5.28;2.05;;;;;;;;;;4957902;28;20039;-58
2023/12/26 01:44:57;;;;;;;4.60;1.90;;;;;;;;;;4952028;28;20046;-54
2023/12/26 01:47:24;;;;;;;3.20;1.52;;;;;;;;;;4967560;28;20045;-57
2023/12/26 01:49:50;;;;;;;5.85;2.00;;;;;;;;;;4971486;28;20402;-57
2023/12/26 01:52:20;;;;;;;7.88;2.00;;;;;;;;;;4950592;28;20557;-59
2023/12/26 01:54:46;;;;;;;;;;;;;;;;;;4968523;28;20529;-56
2023/12/26 01:57:12;;;;;;;4.70;1.70;;;;;;;;;;4966004;28;20428;-57
2023/12/26 01:59:42;;;;;;;3.33;1.40;;;;;;;;;;4950501;28;20035;-57
2023/12/26 02:02:09;;;;;;;4.63;2.20;;;;;;;;;;4952593;28;20039;-56
2023/12/26 02:04:37;;;;;;;4.95;2.42;;;;;;;;;;4945926;28;20785;-56
2023/12/26 02:07:06;;;;;;;6.68;1.92;;;;;;;;;;4952145;28;20059;-56
2023/12/26 02:09:32;;;;;;;3.80;1.63;;;;;;;;;;4952544;28;20034;-57
2023/12/26 02:11:58;;;;;;;2.03;1.65;;;;;;;;;;4948612;28;20521;-58
2023/12/26 02:14:25;;;;;;;7.43;2.05;;;;;;;;;;4951871;28;20043;-60
2023/12/26 02:16:51;;;;;;;4.82;1.77;;;;;;;;;;4949075;28;20039;-58
2023/12/26 02:19:18;;;;;;;4.88;2.08;;;;;;;;;;4949561;28;20039;-58
2023/12/26 02:21:45;;;;;;;4.43;1.92;;;;;;;;;;5010872;22;20053;-55
2023/12/26 02:24:11;;;;;;;6.78;1.77;;;;;;;;;;5045817;28;20052;-55
2023/12/26 02:26:40;;;;;;;7.05;2.13;;;;;;;;;;5048987;28;20048;-55
2023/12/26 02:29:08;;;;;;;3.83;1.88;;;;;;;;;;5048585;28;20029;-57
2023/12/26 02:31:39;;;;;;;7.47;2.05;;;;;;;;;;5035809;28;20037;-57
2023/12/26 02:34:06;;;;;;;4.05;1.80;;;;;;;;;;5012825;28;20037;-57
2023/12/26 02:36:32;;;;;;;3.22;2.05;;;;;;;;;;5012438;28;20518;-57
2023/12/26 02:38:59;;;;;;;5.57;1.80;;;;;;;;;;5031423;28;20049;-55
2023/12/26 02:41:26;;;;;;;4.75;2.00;;;;;;;;;;5014568;28;20053;-56
2023/12/26 02:43:52;;;;;;;5.38;1.90;;;;;;;;;;5030372;28;20037;-58
2023/12/26 02:46:18;;;;;;;4.10;1.92;;;;;;;;;;5029802;28;20050;-51
2023/12/26 02:48:44;;;;;;;4.30;2.88;;;;;;;;;;5030321;28;20037;-55
2023/12/26 02:51:10;;;;;;;5.70;1.98;;;;;;;;;;5027822;28;20045;-56
2023/12/26 02:53:36;;;;;;;4.15;1.70;;;;;;;;;;5030138;28;20520;-55
2023/12/26 02:56:03;;;;;;;3.85;1.60;;;;;;;;;;5031567;28;20045;-57
2023/12/26 02:58:29;;;;;;;5.18;1.80;;;;;;;;;;5031527;28;20519;-55
2023/12/26 03:00:55;;;;;;;3.15;1.77;;;;;;;;;;5029841;28;20044;-54
2023/12/26 03:03:21;;;;;;;6.05;2.30;;;;;;;;;;5031635;28;20053;-55
2023/12/26 03:05:47;;;;;;;2.97;2.00;;;;;;;;;;5030200;28;20064;-57
2023/12/26 03:08:13;;;;;;;3.00;1.58;;;;;;;;;;5015042;28;20053;-56
2023/12/26 03:10:40;;;;;;;7.00;1.65;;;;;;;;;;5035909;28;20020;-56
2023/12/26 03:13:06;;;;;;;7.25;2.13;;;;;;;;;;5035981;28;20412;-53
2023/12/26 03:15:32;;;;;;;4.95;2.10;;;;;;;;;;5033895;28;20034;-56
2023/12/26 03:17:58;;;;;;;4.63;2.38;;;;;;;;;;5033525;28;20034;-55
2023/12/26 03:20:24;;;;;;;4.60;2.25;;;;;;;;;;5031255;28;20034;-55
2023/12/26 03:22:50;;;;;;;3.42;1.85;;;;;;;;;;5013916;28;20680;-57
2023/12/26 03:25:16;;;;;;;2.40;1.40;;;;;;;;;;5032870;28;20485;-56
2023/12/26 03:27:42;;;;;;;5.80;1.92;;;;;;;;;;5033573;28;20048;-55
2023/12/26 03:30:09;;;;;;;4.80;1.70;;;;;;;;;;5013521;28;20390;-56
2023/12/26 03:32:35;;;;;;;5.80;1.70;;;;;;;;;;5032830;28;20049;-54
2023/12/26 03:35:02;;;;;;;4.93;2.10;;;;;;;;;;5035672;28;20045;-55
2023/12/26 03:37:28;;;;;;;3.60;1.50;;;;;;;;;;5034818;28;20107;-56
2023/12/26 03:39:54;;;;;;;5.05;2.13;;;;;;;;;;5036370;28;20044;-56
2023/12/26 03:42:21;;;;;;;4.45;1.90;;;;;;;;;;5032640;28;20398;-56
2023/12/26 03:44:47;;;;;;;5.18;1.83;;;;;;;;;;5013640;28;20421;-57
2023/12/26 03:47:14;;;;;;;5.82;1.95;;;;;;;;;;5013439;28;20045;-58
2023/12/26 03:49:40;;;;;;;7.45;2.25;;;;;;;;;;5014831;28;20489;-57
2023/12/26 03:52:06;;;;;;;3.30;1.65;;;;;;;;;;5031802;28;20049;-55
2023/12/26 03:54:33;;;;;;;5.63;2.15;;;;;;;;;;5016567;28;20382;-54
2023/12/26 03:57:01;;;;;;;2.90;1.92;;;;;;;;;;5034458;28;20559;-56
2023/12/26 03:59:27;;;;;;;7.28;2.03;;;;;;;;;;5034985;28;20052;-57
2023/12/26 04:01:53;;;;;;;5.10;2.10;;;;;;;;;;5018211;28;20052;-56
2023/12/26 04:04:21;;;;;;;5.68;1.90;;;;;;;;;;5014977;28;20033;-53
2023/12/26 04:06:47;;;;;;;5.47;1.85;;;;;;;;;;5017796;28;20037;-56
2023/12/26 04:09:18;;;;;;;4.47;2.05;;;;;;;;;;5017437;28;20037;-56
2023/12/26 04:11:44;;;;;;;4.72;1.90;;;;;;;;;;5012811;28;20057;-57
2023/12/26 04:14:11;;;;;;;5.20;2.10;;;;;;;;;;5014823;28;20045;-56
2023/12/26 04:16:37;;;;;;;10.45;2.92;;;;;;;;;;5012398;28;20523;-57
2023/12/26 04:19:03;;;;;;;4.38;2.03;;;;;;;;;;5032011;28;20045;-57
2023/12/26 04:21:29;;;;;;;4.05;1.67;;;;;;;;;;5029929;28;20037;-56
2023/12/26 04:23:55;;;;;;;6.38;2.05;;;;;;;;;;5031735;28;20044;-57
2023/12/26 04:26:22;;;;;;;5.47;2.15;;;;;;;;;;5032201;28;20497;-56
2023/12/26 04:28:48;;;;;;;2.00;1.42;;;;;;;;;;5029514;28;20049;-56
2023/12/26 04:31:14;;;;;;;4.18;2.05;;;;;;;;;;5015203;28;20037;-56
2023/12/26 04:33:40;;;;;;;3.85;1.80;;;;;;;;;;5016763;28;20366;-57
2023/12/26 04:36:07;;;;;;;6.55;2.45;;;;;;;;;;5014358;28;20038;-58
2023/12/26 04:38:33;;;;;;;9.50;2.35;;;;;;;;;;5016575;28;20507;-54
2023/12/26 04:41:00;;;;;;;3.55;1.85;;;;;;;;;;5015739;28;20045;-56
2023/12/26 04:43:26;;;;;;;3.58;2.00;;;;;;;;;;5030674;28;20501;-55
2023/12/26 04:45:52;;;;;;;8.52;2.40;;;;;;;;;;5032031;28;20040;-55
2023/12/26 04:48:18;;;;;;;7.57;2.05;;;;;;;;;;5032829;28;20066;-55
2023/12/26 04:50:44;;;;;;;4.70;1.98;;;;;;;;;;5015681;28;20049;-58
2023/12/26 04:53:11;;;;;;;4.40;2.45;;;;;;;;;;5013327;28;20052;-58
2023/12/26 04:55:37;;;;;;;6.82;2.20;;;;;;;;;;5016182;28;20037;-56
2023/12/26 04:58:03;;;;;;;5.72;2.30;;;;;;;;;;5017045;28;20053;-57
2023/12/26 05:00:29;;;;;;;7.32;2.20;;;;;;;;;;4996852;28;20041;-56
2023/12/26 05:02:56;;;;;;;4.78;1.90;;;;;;;;;;5014618;28;20057;-55
2023/12/26 05:05:22;;;;;;;8.98;2.45;;;;;;;;;;5016692;28;20504;-53
2023/12/26 05:07:48;;;;;;;6.63;2.35;;;;;;;;;;5031715;28;20046;-56
2023/12/26 05:10:14;;;;;;;6.82;2.38;;;;;;;;;;5034356;28;20060;-57
2023/12/26 05:12:40;;;;;;;3.25;1.80;;;;;;;;;;5034112;28;20048;-56
2023/12/26 05:15:07;;;;;;;9.65;2.28;;;;;;;;;;5029238;28;20041;-57
2023/12/26 05:17:33;;;;;;;4.75;2.03;;;;;;;;;;5029710;28;20401;-56
2023/12/26 05:20:01;;;;;;;4.55;2.10;;;;;;;;;;5030913;28;20053;-57
2023/12/26 05:22:27;;;;;;;6.15;1.98;;;;;;;;;;5014801;28;20394;-58
2023/12/26 05:24:53;;;;;;;6.53;2.03;;;;;;;;;;5015478;28;20037;-58
2023/12/26 05:27:20;;;;;;;4.45;1.83;;;;;;;;;;5015511;28;20041;-57
2023/12/26 05:29:46;;;;;;;6.15;2.03;;;;;;;;;;5016191;28;20052;-57
2023/12/26 05:32:12;;;;;;;6.80;2.25;;;;;;;;;;5032712;28;20562;-57
2023/12/26 05:34:39;;;;;;;5.63;1.80;;;;;;;;;;5013037;28;20045;-55
2023/12/26 05:37:05;;;;;;;5.93;1.92;;;;;;;;;;5016624;28;20049;-58
2023/12/26 05:39:32;;;;;;;8.68;1.98;;;;;;;;;;5016200;28;20041;-58
2023/12/26 05:41:58;;;;;;;10.38;2.08;;;;;;;;;;5014725;28;20519;-58
2023/12/26 05:44:24;;;;;;;7.38;3.40;;;;;;;;;;5013231;28;20052;-58
2023/12/26 05:46:50;;;;;;;5.95;2.30;;;;;;;;;;5014859;28;20045;-57
2023/12/26 05:49:17;;;;;;;5.18;1.88;;;;;;;;;;5012887;28;20037;-58
2023/12/26 05:51:43;;;;;;;5.53;1.90;;;;;;;;;;5016121;28;20521;-58
2023/12/26 05:54:09;;;;;;;9.38;2.10;;;;;;;;;;5028755;28;20045;-59
2023/12/26 05:56:35;;;;;;;6.35;2.33;;;;;;;;;;5013231;28;20401;-58
2023/12/26 05:59:01;;;;;;;11.55;2.33;;;;;;;;;;5017638;28;20037;-54
2023/12/26 06:01:28;;;;;;;4.05;1.92;;;;;;;;;;5013994;28;20049;-58
2023/12/26 06:03:54;;;;;;;5.13;2.35;;;;;;;;;;5013791;28;20033;-56
2023/12/26 06:06:21;;;;;;;4.97;2.25;;;;;;;;;;5012352;28;20041;-55
2023/12/26 06:08:47;;;;;;;7.22;1.90;;;;;;;;;;5015172;28;20033;-56
2023/12/26 06:11:13;;;;;;;5.35;2.10;;;;;;;;;;5014150;28;20053;-60
2023/12/26 06:13:41;;;;;;;4.03;2.03;;;;;;;;;;5013195;28;20496;-59
2023/12/26 06:16:08;;;;;;;4.75;2.03;;;;;;;;;;5011631;28;20049;-60
2023/12/26 06:18:35;;;;;;;6.00;2.13;;;;;;;;;;5013086;28;20048;-58
2023/12/26 06:21:01;;;;;;;5.32;2.10;;;;;;;;;;5029749;28;20401;-57
2023/12/26 06:23:27;;;;;;;6.05;2.50;;;;;;;;;;5011200;28;20041;-58
2023/12/26 06:25:56;;;;;;;5.38;2.70;;;;;;;;;;5029676;28;20033;-58
2023/12/26 06:28:22;;;;;;;4.32;2.05;;;;;;;;;;5028463;28;20037;-57
2023/12/26 06:30:48;;;;;;;4.63;2.10;;;;;;;;;;5033691;28;20029;-56
2023/12/26 06:33:14;;;;;;;10.23;2.55;;;;;;;;;;5015604;28;20037;-57
2023/12/26 06:35:41;;;;;;;5.60;2.50;;;;;;;;;;5031238;28;20056;-57
2023/12/26 06:38:12;;;;;;;5.43;2.42;;;;;;;;;;5015756;28;20033;-56
2023/12/26 06:40:42;;;;;;;5.00;1.85;;;;;;;;;;5012241;28;20037;-59
2023/12/26 06:43:10;;;;;;;4.28;2.20;;;;;;;;;;5032065;28;20492;-57
2023/12/26 06:45:37;;;;;;;5.70;2.40;;;;;;;;;;5013875;28;20040;-59
2023/12/26 06:48:03;;;;;;;4.43;1.83;;;;;;;;;;5016509;28;20471;-58
2023/12/26 06:50:33;;;;;;;7.45;2.13;;;;;;;;;;5017127;28;20031;-58
2023/12/26 06:52:59;;;;;;;6.63;3.00;;;;;;;;;;5034883;28;20084;-57
2023/12/26 06:55:25;;;;;;;5.97;2.20;;;;;;;;;;5035822;28;20057;-55
2023/12/26 06:57:51;;;;;;;6.32;2.40;;;;;;;;;;5033239;28;20045;-57
2023/12/26 07:00:18;;;;;;;7.03;1.98;;;;;;;;;;5035481;28;20125;-58
2023/12/26 07:02:45;;;;;;;6.60;2.40;;;;;;;;;;5038611;28;20096;-58
2023/12/26 07:05:11;;;;;;;7.07;2.30;;;;;;;;;;5018538;28;20033;-56
2023/12/26 07:07:38;;;;;;;5.72;2.53;;;;;;;;;;5018559;28;20049;-58
2023/12/26 07:10:04;;;;;;;4.60;2.40;;;;;;;;;;5031195;28;20068;-57
2023/12/26 07:12:30;;;;;;;10.23;2.80;;;;;;;;;;5031482;28;20045;-57
2023/12/26 07:14:56;;;;;;;7.80;1.98;;;;;;;;;;5031507;28;20053;-57
2023/12/26 07:17:23;;;;;;;5.60;2.15;;;;;;;;;;5032028;28;20060;-56
2023/12/26 07:19:49;;;;;;;4.28;2.15;;;;;;;;;;5012516;28;20048;-57
2023/12/26 07:22:15;;;;;;;4.78;2.08;;;;;;;;;;5033202;28;20054;-58
2023/12/26 07:24:42;;;;;;;6.05;2.30;;;;;;;;;;5032265;28;20045;-54
2023/12/26 07:27:08;;;;;;;6.68;2.00;;;;;;;;;;5035490;28;20037;-58
2023/12/26 07:29:34;;;;;;;6.40;1.92;;;;;;;;;;5034885;28;20060;-59
2023/12/26 07:32:00;;;;;;;7.88;2.38;;;;;;;;;;5032939;28;20402;-59
2023/12/26 07:34:27;;;;;;;6.45;2.30;;;;;;;;;;5035467;28;20512;-58
2023/12/26 07:36:53;;;;;;;5.97;2.55;;;;;;;;;;5035605;28;20049;-58
2023/12/26 07:39:19;;;;;;;3.53;1.88;;;;;;;;;;5032640;28;20053;-57
2023/12/26 07:41:46;;;;;;;7.80;2.97;;;;;;;;;;5032586;28;20045;-57
2023/12/26 07:44:12;;;;;;;10.30;2.70;;;;;;;;;;5030929;28;20513;-57
2023/12/26 07:46:38;;;;;;;11.63;2.83;;;;;;;;;;5034762;28;20029;-57
2023/12/26 07:49:04;;;;;;;13.63;2.58;;;;;;;;;;5032345;28;20044;-58
2023/12/26 07:51:31;;;;;;;5.32;2.30;;;;;;;;;;5031661;28;20037;-59
2023/12/26 07:53:57;;;;;;;7.28;2.33;;;;;;;;;;5033207;28;20029;-57
2023/12/26 07:56:25;;;;;;;4.03;2.03;;;;;;;;;;5031432;28;20025;-58
2023/12/26 07:58:52;;;;;;;8.00;2.15;;;;;;;;;;5031421;28;20527;-57
2023/12/26 08:01:18;;;;;;;5.72;2.13;;;;;;;;;;5035115;28;20060;-60
2023/12/26 08:03:45;;;;;;;8.07;2.45;;;;;;;;;;5036532;28;20064;-59
2023/12/26 08:06:11;;;;;;;8.20;2.65;;;;;;;;;;5034691;28;20069;-57
2023/12/26 08:08:37;;;;;;;9.60;2.40;;;;;;;;;;5034665;28;20033;-59
2023/12/26 08:11:03;;;;;;;5.63;2.40;;;;;;;;;;5029190;28;20523;-60
2023/12/26 08:13:30;;;;;;;7.85;2.33;;;;;;;;;;5031370;28;20488;-59
2023/12/26 08:15:56;;;;;;;8.30;1.80;;;;;;;;;;5032016;28;20040;-58
2023/12/26 08:18:23;;;;;;;5.68;2.10;;;;;;;;;;5031295;28;20056;-58
2023/12/26 08:20:49;;;;;;;4.15;1.90;;;;;;;;;;5033328;28;20033;-61
2023/12/26 08:23:15;;;;;;;10.18;2.47;;;;;;;;;;4996953;22;20039;-54
2023/12/26 08:25:42;;;;;;;6.40;2.35;;;;;;;;;;4954132;28;20051;-55
2023/12/26 08:28:08;;;;;;;6.90;2.00;;;;;;;;;;4956618;28;20050;-54
2023/12/26 08:30:34;;;;;;;7.38;2.55;;;;;;;;;;4949756;28;20027;-55
2023/12/26 08:33:01;;;;;;;9.23;2.60;;;;;;;;;;4953076;28;20491;-54
2023/12/26 08:35:27;;;;;;;7.93;2.30;;;;;;;;;;4952526;28;20058;-56
2023/12/26 08:37:53;;;;;;;8.80;2.05;;;;;;;;;;4951202;28;20043;-56
2023/12/26 08:40:20;;;;;;;9.52;2.13;;;;;;;;;;4949251;28;20039;-55
2023/12/26 08:42:47;;;;;;;7.50;2.08;;;;;;;;;;4950816;28;20526;-57
2023/12/26 08:45:13;;;;;;;3.70;1.90;;;;;;;;;;4952017;28;20557;-55
2023/12/26 08:47:39;;;;;;;7.72;2.63;;;;;;;;;;4951000;28;20503;-58
2023/12/26 08:50:06;;;;;;;8.23;2.17;;;;;;;;;;4952538;28;20047;-57
2023/12/26 08:52:32;;;;;;;6.32;2.47;;;;;;;;;;4949655;28;20031;-55
2023/12/26 08:54:58;;;;;;;6.45;2.33;;;;;;;;;;4954521;28;20418;-55
2023/12/26 08:57:24;;;;;;;6.18;2.47;;;;;;;;;;4953020;28;20403;-55
2023/12/26 08:59:50;;;;;;;7.40;2.47;;;;;;;;;;4952856;28;20032;-54
2023/12/26 09:02:17;;;;;;;6.47;2.45;;;;;;;;;;4952882;28;20054;-55
2023/12/26 09:04:43;;;;;;;7.13;2.22;;;;;;;;;;4956077;28;20046;-56
2023/12/26 09:07:09;;;;;;;5.72;2.20;;;;;;;;;;4952730;28;20031;-55
2023/12/26 09:09:36;;;;;;;7.22;2.42;;;;;;;;;;4950267;28;20047;-57
2023/12/26 09:12:02;;;;;;;8.32;2.50;;;;;;;;;;4957825;28;20414;-55
2023/12/26 09:14:28;;;;;;;5.15;2.42;;;;;;;;;;4954757;28;20034;-56
2023/12/26 09:16:54;;;;;;;7.28;2.35;;;;;;;;;;4954643;28;20055;-54
2023/12/26 09:19:21;;;;;;;7.80;2.03;;;;;;;;;;4958712;28;20063;-54
2023/12/26 09:21:47;;;;;;;4.97;2.42;;;;;;;;;;4950126;28;20051;-55
2023/12/26 09:24:13;;;;;;;5.55;2.50;;;;;;;;;;4957538;28;20042;-56
2023/12/26 09:26:39;;;;;;;7.88;2.10;;;;;;;;;;4950965;28;20027;-54
2023/12/26 09:29:05;;;;;;;9.88;2.38;;;;;;;;;;4949887;28;20059;-56
2023/12/26 09:31:32;;;;;;;8.30;2.25;;;;;;;;;;4952344;28;20039;-57
2023/12/26 09:33:58;;;;;;;9.48;2.38;;;;;;;;;;4954343;28;20051;-56
2023/12/26 09:36:24;;;;;;;6.78;2.33;;;;;;;;;;4949258;28;20043;-56
2023/12/26 09:38:50;;;;;;;7.45;1.95;;;;;;;;;;4950726;28;20048;-57
2023/12/26 09:41:24;;;;;;;8.93;2.20;;;;;;;;;;4950273;28;20399;-55
2023/12/26 09:43:50;;;;;;;7.50;2.33;;;;;;;;;;4950227;28;20043;-57
2023/12/26 09:46:16;;;;;;;4.43;2.50;;;;;;;;;;4945844;28;20036;-55
2023/12/26 09:48:43;;;;;;;5.40;2.15;;;;;;;;;;4951693;28;20046;-56
2023/12/26 09:51:16;;;;;;;6.35;2.47;;;;;;;;;;4966574;28;20043;-57
2023/12/26 09:53:44;;;;;;;5.68;2.28;;;;;;;;;;4954701;28;20051;-56
2023/12/26 09:56:11;;;;;;;11.93;3.97;;;;;;;;;;4952287;28;20403;-54
2023/12/26 09:58:43;;;;;;;6.78;2.70;;;;;;;;;;4953002;28;20055;-56
2023/12/26 10:01:12;;;;;;;6.63;2.05;;;;;;;;;;4949951;28;20036;-57
2023/12/26 10:03:43;;;;;;;5.85;2.20;;;;;;;;;;4952084;28;20040;-54
2023/12/26 10:06:09;;;;;;;6.65;2.38;;;;;;;;;;4952501;28;20047;-57
2023/12/26 10:08:36;;;;;;;6.57;2.47;;;;;;;;;;4956634;28;20047;-58
2023/12/26 10:11:02;;;;;;;7.47;2.78;;;;;;;;;;4949576;28;20047;-57
2023/12/26 10:13:49;;;;;;;6.85;2.67;;;;;;;;;;4951539;28;20058;-57
2023/12/26 10:16:16;;;;;;;6.95;2.15;;;;;;;;;;4947884;28;20024;-57
2023/12/26 10:18:42;;;;;;;6.75;2.22;;;;;;;;;;4949547;28;20062;-57
2023/12/26 10:21:09;;;;;;;3.65;2.15;;;;;;;;;;4954661;28;20048;-57
2023/12/26 10:23:35;;;;;;;7.25;2.53;;;;;;;;;;4963747;28;20428;-55
2023/12/26 10:26:02;;;;;;;3.00;2.03;;;;;;;;;;4949811;28;20517;-56
2023/12/26 10:28:28;;;;;;;9.07;2.70;;;;;;;;;;4951452;28;20667;-54
2023/12/26 10:30:55;;;;;;;8.02;2.47;;;;;;;;;;4949516;28;20057;-55
2023/12/26 10:33:28;;;;;;;6.22;2.20;;;;;;;;;;4949174;28;20059;-55
2023/12/26 10:36:04;;;;;;;11.20;2.97;;;;;;;;;;4949695;28;20059;-57
2023/12/26 10:38:31;;;;;;;7.63;2.65;;;;;;;;;;4947619;28;20059;-55
2023/12/26 10:41:07;;;;;;;6.07;2.20;;;;;;;;;;4946193;28;20058;-58
2023/12/26 10:43:40;;;;;;;5.03;1.85;;;;;;;;;;4953880;28;20058;-56
2023/12/26 10:46:07;;;;;;;7.43;2.55;;;;;;;;;;4949906;28;20407;-56
2023/12/26 10:48:36;;;;;;;7.75;2.25;;;;;;;;;;4951556;28;20039;-55
2023/12/26 10:51:04;;;;;;;9.50;2.33;;;;;;;;;;4948234;28;20054;-57
2023/12/26 10:53:47;;;;;;;6.00;2.15;;;;;;;;;;4951130;28;20058;-57
2023/12/26 10:56:14;;;;;;;6.38;1.95;;;;;;;;;;4948894;28;20051;-56
2023/12/26 10:58:40;;;;;;;5.63;2.28;;;;;;;;;;4950913;28;20042;-56
2023/12/26 11:01:08;;;;;;;5.95;2.08;;;;;;;;;;4950504;28;20039;-58
2023/12/26 13:53:26;;;;;;;3.35;1.58;;;;;;;;;;4949274;28;20042;-54
2023/12/26 13:55:52;;;;;;;3.53;1.35;;;;;;;;;;4953930;28;20042;-57
2023/12/26 13:58:18;;;;;;;2.22;1.30;;;;;;;;;;4954086;28;20047;-56
2023/12/26 14:00:44;;;;;;;3.95;1.50;;;;;;;;;;4955941;28;20043;-54
2023/12/26 14:03:10;;;;;;;2.60;1.30;;;;;;;;;;5026435;28;20511;-56
2023/12/26 14:05:36;;;;;;;3.13;1.20;;;;;;;;;;4948259;28;20419;-59
2023/12/26 14:08:05;;;;;;;5.20;1.70;;;;;;;;;;4949989;28;20055;-56
2023/12/26 14:10:31;;;;;;;6.63;1.50;;;;;;;;;;4949265;28;20114;-58
2023/12/26 14:12:57;;;;;;;3.65;1.50;;;;;;;;;;4948723;28;20422;-56
2023/12/26 14:15:23;;;;;;;6.43;2.45;;;;;;;;;;4953115;28;20040;-58
2023/12/26 14:17:49;;;;;;;5.68;2.15;;;;;;;;;;4948407;28;20242;-56
2023/12/26 14:20:15;;;;;;;7.63;3.45;;;;;;;;;;4947046;28;20048;-57
2023/12/26 14:22:41;;;;;;;4.38;1.50;;;;;;;;;;4964864;22;21134;-58
2023/12/26 14:25:08;;;;;;;9.10;3.17;;;;;;;;;;4946756;28;20070;-60
2023/12/26 14:27:34;;;;;;;8.93;3.55;;;;;;;;;;4981042;28;20051;-59
2023/12/26 14:30:00;;;;;;;11.45;3.47;;;;;;;;;;4956916;28;20491;-55
2023/12/26 14:32:26;;;;;;;14.38;4.07;;;;;;;;;;4972279;28;20402;-56
2023/12/26 14:34:53;;;;;;;7.90;2.90;;;;;;;;;;4951339;28;20426;-58
2023/12/26 14:37:19;;;;;;;9.57;3.70;;;;;;;;;;4950933;28;20411;-58
2023/12/26 14:39:45;;;;;;;6.25;2.60;;;;;;;;;;4948877;28;20055;-57
2023/12/26 14:42:11;;;;;;;9.00;2.28;;;;;;;;;;4955941;28;20054;-58
2023/12/26 14:44:37;;;;;;;11.90;3.90;;;;;;;;;;4954373;28;20058;-59
2023/12/26 14:47:03;;;;;;;9.50;4.43;;;;;;;;;;4960289;28;20043;-60
2023/12/26 14:49:30;;;;;;;15.80;5.90;;;;;;;;;;4960357;28;20041;-60
2023/12/26 14:51:56;;;;;;;16.67;5.97;;;;;;;;;;4966366;28;20046;-59
2023/12/26 14:54:22;;;;;;;11.32;4.75;;;;;;;;;;4951538;28;20058;-55
2023/12/26 16:47:07;;;;;;;4.13;1.90;;;;;;;;;;4959830;28;20043;-56
2023/12/26 16:49:33;;;;;;;5.80;2.83;;;;;;;;;;4961793;28;20048;-60
2023/12/26 16:51:59;;;;;;;4.32;2.50;;;;;;;;;;4967356;28;20057;-60
2023/12/26 16:54:25;;;;;;;8.45;2.30;;;;;;;;;;4969061;28;20055;-57
2023/12/26 16:56:51;;;;;;;5.47;2.83;;;;;;;;;;4958565;28;20046;-58
2023/12/26 16:59:18;;;;;;;7.07;2.65;;;;;;;;;;4954211;28;20494;-56
2023/12/26 17:01:44;;;;;;;11.50;2.85;;;;;;;;;;4957834;28;20077;-60
2023/12/26 17:04:14;;;;;;;6.30;2.97;;;;;;;;;;4948184;28;20050;-60
2023/12/26 17:06:43;;;;;;;11.93;4.13;;;;;;;;;;4957679;28;20050;-57
2023/12/26 17:09:10;;;;;;;13.25;6.32;;;;;;;;;;4963223;28;20063;-57
2023/12/26 17:11:37;;;;;;;12.85;6.20;;;;;;;;;;4954667;28;20038;-58
2023/12/26 17:14:04;;;;;;;9.80;4.20;;;;;;;;;;4955080;28;20051;-58
2023/12/26 17:16:30;;;;;;;10.98;4.05;;;;;;;;;;4959095;28;20043;-59
2023/12/26 17:18:59;;;;;;;7.10;2.55;;;;;;;;;;4957046;28;20047;-56
2023/12/26 17:21:25;;;;;;;4.47;2.08;;;;;;;;;;4958310;28;20658;-58
2023/12/26 17:23:51;;;;;;;7.13;2.83;;;;;;;;;;4973466;28;20043;-59
2023/12/26 17:26:17;;;;;;;8.50;2.33;;;;;;;;;;4955451;28;20051;-58
2023/12/26 17:28:44;;;;;;;9.55;3.08;;;;;;;;;;4972595;28;20030;-57
2023/12/26 17:31:10;;;;;;;5.30;3.15;;;;;;;;;;4952370;28;20043;-56
2023/12/26 17:33:37;;;;;;;8.40;3.55;;;;;;;;;;4952491;28;20494;-57
2023/12/26 17:36:04;;;;;;;5.95;2.90;;;;;;;;;;4953213;28;20039;-58
2023/12/26 17:38:30;;;;;;;9.85;3.03;;;;;;;;;;4957862;28;20039;-58
2023/12/26 17:40:56;;;;;;;8.32;2.90;;;;;;;;;;4957583;28;20506;-57
2023/12/26 17:43:22;;;;;;;6.97;2.90;;;;;;;;;;4955843;28;20044;-57
2023/12/26 17:45:49;;;;;;;8.98;3.42;;;;;;;;;;4954233;28;20077;-57
2023/12/26 17:48:15;;;;;;;7.75;3.10;;;;;;;;;;4963239;28;20053;-60
2023/12/26 17:50:42;;;;;;;8.27;2.58;;;;;;;;;;4952490;28;20077;-59
2023/12/26 17:53:08;;;;;;;7.80;2.67;;;;;;;;;;4956065;28;20035;-59
2023/12/26 17:55:34;;;;;;;5.30;2.22;;;;;;;;;;4954673;28;20446;-57
2023/12/26 17:58:02;;;;;;;5.22;2.63;;;;;;;;;;4970335;28;20043;-57
2023/12/26 18:00:28;;;;;;;8.65;3.50;;;;;;;;;;4950864;28;20119;-56
2023/12/26 18:02:55;;;;;;;8.88;3.83;;;;;;;;;;4953123;28;20051;-54
2023/12/26 18:05:21;;;;;;;5.47;2.58;;;;;;;;;;4957623;28;20035;-55
2023/12/26 18:07:47;;;;;;;8.25;2.60;;;;;;;;;;4949351;28;20418;-56
2023/12/26 18:10:13;;;;;;;6.50;2.80;;;;;;;;;;4974815;28;20053;-58
2023/12/26 18:12:40;;;;;;;8.88;3.10;;;;;;;;;;4950787;28;20047;-57
2023/12/26 18:15:07;;;;;;;5.72;2.38;;;;;;;;;;4952675;28;20051;-58
2023/12/26 18:17:33;;;;;;;4.30;2.55;;;;;;;;;;4963316;28;20058;-59
2023/12/26 18:19:59;;;;;;;7.18;2.83;;;;;;;;;;4950448;28;20034;-57
2023/12/26 18:22:25;;;;;;;8.25;2.80;;;;;;;;;;4951640;28;20510;-59
2023/12/26 18:24:52;;;;;;;16.75;4.00;;;;;;;;;;4952618;28;20070;-58
2023/12/26 18:27:18;;;;;;;9.82;3.85;;;;;;;;;;4972527;28;20457;-60
2023/12/26 18:29:44;;;;;;;12.63;4.15;;;;;;;;;;4957321;28;20043;-58
2023/12/26 18:32:10;;;;;;;6.22;3.05;;;;;;;;;;4951700;28;20058;-57
2023/12/26 18:34:37;;;;;;;6.55;3.10;;;;;;;;;;4952593;28;20050;-58
2023/12/26 18:37:03;;;;;;;6.60;2.42;;;;;;;;;;4957210;28;20055;-63
2023/12/26 18:39:30;;;;;;;4.75;2.13;;;;;;;;;;4967677;28;20503;-60
2023/12/26 18:41:56;;;;;;;8.20;3.08;;;;;;;;;;4967684;28;20600;-57
2023/12/26 18:44:22;;;;;;;4.43;2.30;;;;;;;;;;4956744;28;20100;-60
2023/12/26 18:46:48;;;;;;;5.50;2.53;;;;;;;;;;4995031;28;20044;-58
2023/12/26 18:49:15;;;;;;;7.85;2.20;;;;;;;;;;4966969;28;20059;-60
2023/12/26 18:51:43;;;;;;;5.70;2.13;;;;;;;;;;4977293;28;20058;-58
2023/12/26 18:54:09;;;;;;;5.15;2.40;;;;;;;;;;4964263;28;20052;-58
2023/12/26 18:56:35;;;;;;;4.13;2.20;;;;;;;;;;4956729;28;20066;-58
2023/12/26 18:59:02;;;;;;;7.63;2.88;;;;;;;;;;4968690;28;20103;-58
2023/12/26 19:01:28;;;;;;;7.97;3.60;;;;;;;;;;4958564;28;20046;-60
2023/12/26 19:03:55;;;;;;;11.88;4.00;;;;;;;;;;4960643;28;20043;-59
2023/12/26 19:06:21;;;;;;;8.25;3.70;;;;;;;;;;4959846;28;20039;-59
2023/12/26 19:08:47;;;;;;;10.75;3.58;;;;;;;;;;4974840;28;20039;-58
2023/12/26 19:11:16;;;;;;;12.95;6.05;;;;;;;;;;4968167;28;20035;-59
2023/12/26 19:13:42;;;;;;;7.45;3.50;;;;;;;;;;4969295;28;20106;-57
2023/12/26 19:16:11;;;;;;;9.52;3.50;;;;;;;;;;4958204;28;20517;-57
2023/12/26 19:18:37;;;;;;;17.15;4.55;;;;;;;;;;4960109;28;20031;-59
2023/12/26 19:21:04;;;;;;;9.80;3.60;;;;;;;;;;4973453;28;20041;-58